Glenpool, OK

3:33 PM CDT on August 17, 2017 (GMT -0500)
West Bixby Weather | | Change Station

Elev 707 ft 35.94 °N, 95.96 °W | Updated 2 seconds ago

Partly Cloudy
Partly Cloudy
89.4 °F
Feels Like 102 °F
N
0.0
Wind Variable Wind from SSE
Gusts 0.0 mph

Today
High -- | Low -- °F
--% Chance of Precip.
Yesterday
High -- | Low -- °F
Precip. -- in
Pressure 30.01 in
Visibility 10.0 miles
Clouds Scattered Clouds 4900 ft
Heat Index 102 °F
Dew Point 77 °F
Humidity 66%
Rainfall 29.94 in
Snow Depth Not available.
6:44 AM 8:10 PM
Waning Crescent, 20% visible
METAR KRVS 171953Z 21006KT 10SM SCT049 32/21 A3000 RMK AO2 SLP160 T03170206
Pressure 30.01 in
Visibility 10.0 miles
Clouds Scattered Clouds 4900 ft
Heat Index 102 °F
Dew Point 77 °F
Humidity 66%
Rainfall 29.94 in
Snow Depth Not available.
6:44 AM 8:10 PM
Waning Crescent, 20% visible
METAR KRVS 171953Z 21006KT 10SM SCT049 32/21 A3000 RMK AO2 SLP160 T03170206

Get Severe Weather Alerts

Thanks for signing up!

Be on the lookout for a verification email in your inbox.

You'll start receiving the daily forecast at 6 AM.

×

10-Day Weather Forecast

Almanac

Astronomy

Aug. 17, 2017 Rise Set
Actual Time
Civil Twilight
Nautical Twilight
Astronomical Twilight
Moon
Length of Visible Light
Length of Day
Tomorrow will be .
, % of the Moon is Illuminated

Today's Extremes

State Highs State Lows

Community

WunderPhotos

Category 6

Welcome to Category 6. This is the collective home for Weather Underground's featured writeups by Dr. Jeff Masters (right), Bob Henson (left), Chris Burt, and other regular contributors.

Nearby

Air Quality

  Air Quality AQ Index Pollutant
Not available.

Snow Depth

Station Depth Elevation

Earthquake Activity

City Distance Mag. Time & Date
Minimum magnitude displayed is 2.5.

Coastal Water Temperatures

Place Temperature

Stations

Nearby Weather Stations

Station Location Temp. Windchill Dew Point Humidity Wind Precip. Elev Updated Type
                   

Watches & Warnings

There are currently no watches in effect.